Time;durP1;ratioP1;P1;durP2;ratioP2;P2;SDS_P1;SDS_P2;PMS_P1;PMS_P2;Temp;Humidity;BMP_temperature;BMP_pressure;BME280_temperature;BME280_humidity;BME280_pressure;Samples;Min_cycle;Max_cycle;Signal;HPM_P1;HPM_P2
2022/11/04 00:01:07;;;;;;;;;;;;;;;12.71;68.73;98137.97;5197551;28;19929;-82
2022/11/04 00:03:58;;;;;;;;;;;;;;;12.72;68.86;98144.16;5213351;28;19928;-83
2022/11/04 00:06:48;;;;;;;;;;;;;;;12.70;69.39;98150.44;5197129;28;20429;-83
2022/11/04 00:09:38;;;;;;;;;;;;;;;12.67;69.38;98142.81;5196978;28;20017;-82
2022/11/04 00:12:28;;;;;;;;;;;;;;;12.65;69.20;98144.03;5207164;28;19928;-84
2022/11/04 00:18:27;;;;;;;;;;;;;;;12.54;68.93;98145.25;5269608;28;20024;-71
2022/11/04 00:30:43;;;;;;;;;;;;;;;12.41;69.26;98158.28;5283572;28;19964;-71
2022/11/04 00:33:33;;;;;;;;;;;;;;;12.43;68.83;98150.97;5279637;28;19927;-70
2022/11/04 00:36:23;;;;;;;;;;;;;;;12.41;69.09;98168.94;5269009;28;19926;-70
2022/11/04 00:39:13;;;;;;;;;;;;;;;12.43;69.15;98172.25;5253498;28;19973;-71
2022/11/04 00:42:03;;;;;;;;;;;;;;;12.44;69.63;98158.78;5268709;28;19965;-71
2022/11/04 00:44:53;;;;;;;;;;;;;;;12.46;69.47;98166.59;5266183;28;19923;-71
2022/11/04 00:47:43;;;;;;;;;;;;;;;12.45;69.21;98172.91;5274119;28;19968;-70
2022/11/04 00:50:33;;;;;;;;;;;;;;;12.52;68.69;98159.75;5289706;28;20385;-71
2022/11/04 00:53:22;;;;;;;;;;;;;;;12.62;69.34;98166.47;5274534;28;20592;-71
2022/11/04 00:56:12;;;;;;;;;;;;;;;12.58;69.11;98170.50;5283138;28;20303;-70
2022/11/04 00:59:02;;;;;;;;;;;;;;;12.53;68.29;98172.84;5260033;28;19927;-70
2022/11/04 01:01:52;;;;;;;;;;;;;;;12.74;68.27;98180.19;5281265;28;19927;-71
2022/11/04 01:04:42;;;;;;;;;;;;;;;12.64;68.68;98184.91;5289698;28;20442;-71
2022/11/04 01:07:32;;;;;;;;;;;;;;;12.64;68.39;98188.38;5288044;28;20293;-71
2022/11/04 01:10:22;;;;;;;;;;;;;;;12.61;68.20;98180.75;5289596;28;19930;-71
2022/11/04 01:13:12;;;;;;;;;;;;;;;12.39;67.26;98185.06;5284690;28;20607;-70
2022/11/04 01:16:04;;;;;;;;;;;;;;;12.13;68.98;98196.00;5280441;28;19919;-71
2022/11/04 01:18:54;;;;;;;;;;;;;;;12.53;67.72;98199.44;5289130;28;19977;-71
2022/11/04 01:21:43;;;;;;;;;;;;;;;12.15;68.61;98191.34;5288866;28;19926;-71
2022/11/04 01:24:33;;;;;;;;;;;;;;;12.18;69.27;98190.97;5289169;28;19927;-70
2022/11/04 01:27:23;;;;;;;;;;;;;;;12.37;69.01;98188.91;5286379;28;19978;-70
2022/11/04 01:30:13;;;;;;;;;;;;;;;12.58;68.05;98197.09;5280782;28;19946;-71
2022/11/04 01:33:03;;;;;;;;;;;;;;;12.33;67.96;98192.91;5279802;28;19924;-70
2022/11/04 01:35:52;;;;;;;;;;;;;;;12.06;68.40;98180.94;5267740;28;19920;-71
2022/11/04 01:38:42;;;;;;;;;;;;;;;12.30;68.02;98180.78;5251265;28;19970;-71
2022/11/04 01:41:33;;;;;;;;;;;;;;;12.14;68.60;98187.00;5244156;28;20601;-70
2022/11/04 01:44:41;;;;;;;;;;;;;;;12.27;67.62;98188.28;5264263;28;20127;-71
2022/11/04 01:47:35;;;;;;;;;;;;;;;12.26;67.73;98190.13;5246951;28;20397;-71
2022/11/04 01:50:29;;;;;;;;;;;;;;;12.52;67.22;98194.31;5246511;28;20013;-70
2022/11/04 01:53:25;;;;;;;;;;;;;;;12.38;68.14;98195.88;5246634;28;20339;-71
2022/11/04 01:56:16;;;;;;;;;;;;;;;12.40;67.73;98188.56;5231807;28;19936;-70
2022/11/04 01:59:10;;;;;;;;;;;;;;;12.22;68.38;98184.34;5261358;28;19927;-70
2022/11/04 02:02:00;;;;;;;;;;;;;;;12.29;68.18;98191.63;5272661;28;19920;-70
2022/11/04 02:04:50;;;;;;;;;;;;;;;12.37;67.26;98189.72;5288217;28;19920;-70
2022/11/04 02:07:40;;;;;;;;;;;;;;;12.15;68.62;98190.50;5288045;28;20522;-71
2022/11/04 02:10:31;;;;;;;;;;;;;;;12.30;67.43;98190.59;5269433;28;19926;-71
2022/11/04 02:13:21;;;;;;;;;;;;;;;12.30;67.39;98194.09;5258716;28;20631;-71
2022/11/04 02:16:30;;;;;;;;;;;;;;;12.23;67.46;98193.97;5279510;28;19931;-71
2022/11/04 02:19:26;;;;;;;;;;;;;;;11.93;68.12;98179.66;5287786;28;19920;-71
2022/11/04 02:22:15;;;;;;;;;;;;;;;11.96;67.77;98155.41;5287645;28;19926;-70
2022/11/04 02:25:25;;;;;;;;;;;;;;;11.83;67.87;98168.38;5287903;28;19920;-71
2022/11/04 02:28:33;;;;;;;;;;;;;;;11.82;67.19;98166.72;5276551;28;19972;-71
2022/11/04 02:31:42;;;;;;;;;;;;;;;12.12;66.52;98165.13;5263129;28;19943;-71
2022/11/04 02:34:41;;;;;;;;;;;;;;;12.13;66.71;98168.59;5266806;28;19927;-73
2022/11/04 02:37:43;;;;;;;;;;;;;;;11.96;66.67;98184.63;5251481;28;19994;-70
2022/11/04 02:40:52;;;;;;;;;;;;;;;11.99;66.83;98188.75;5266624;28;19939;-69
2022/11/04 02:44:00;;;;;;;;;;;;;;;11.79;66.67;98190.09;5258102;28;20313;-71
2022/11/04 02:47:02;;;;;;;;;;;;;;;12.07;66.12;98183.41;5245291;28;19928;-73
2022/11/04 02:50:08;;;;;;;;;;;;;;;11.92;65.86;98177.16;5245166;28;19924;-72
2022/11/04 02:53:02;;;;;;;;;;;;;;;11.60;66.58;98178.91;5244829;28;19920;-72
2022/11/04 02:55:54;;;;;;;;;;;;;;;12.07;65.39;98182.56;5231788;28;20415;-70
2022/11/04 02:58:53;;;;;;;;;;;;;;;12.10;65.19;98188.38;5273628;28;20061;-71
2022/11/04 03:01:44;;;;;;;;;;;;;;;11.96;65.09;98194.41;5264884;28;19927;-70
2022/11/04 03:04:37;;;;;;;;;;;;;;;11.98;64.73;98200.38;5269897;28;20004;-73
2022/11/04 03:07:30;;;;;;;;;;;;;;;11.73;64.89;98192.47;5265916;28;19969;-70
2022/11/04 03:10:23;;;;;;;;;;;;;;;11.93;65.65;98192.09;5265871;28;19927;-71
2022/11/04 03:13:15;;;;;;;;;;;;;;;12.07;65.33;98214.47;5265087;28;20560;-72
2022/11/04 03:16:09;;;;;;;;;;;;;;;11.71;65.40;98201.59;5281298;28;19923;-70
2022/11/04 03:19:03;;;;;;;;;;;;;;;11.93;65.35;98187.63;5286738;28;19923;-70
2022/11/04 03:21:59;;;;;;;;;;;;;;;11.77;65.45;98188.47;5286742;28;19926;-70
2022/11/04 03:24:49;;;;;;;;;;;;;;;11.86;65.16;98197.28;5271840;28;20076;-70
2022/11/04 03:27:39;;;;;;;;;;;;;;;11.92;64.87;98204.56;5282819;28;20647;-70
2022/11/04 03:30:36;;;;;;;;;;;;;;;11.98;65.26;98217.13;5266170;28;20388;-71
2022/11/04 03:33:26;;;;;;;;;;;;;;;11.83;64.33;98218.84;5266098;28;19973;-74
2022/11/04 03:36:16;;;;;;;;;;;;;;;11.96;65.57;98221.00;5265557;28;20597;-70
2022/11/04 03:39:06;;;;;;;;;;;;;;;11.98;64.92;98229.59;5250332;28;19941;-72
2022/11/04 03:41:57;;;;;;;;;;;;;;;11.81;66.30;98226.13;5264796;28;19920;-73
2022/11/04 03:44:49;;;;;;;;;;;;;;;11.77;67.04;98244.25;5264860;28;20786;-69
2022/11/04 03:47:39;;;;;;;;;;;;;;;11.92;65.54;98251.53;5286185;28;19961;-71
2022/11/04 03:50:30;;;;;;;;;;;;;;;11.65;66.25;98252.72;5271081;28;19919;-71
2022/11/04 03:53:21;;;;;;;;;;;;;;;11.59;66.93;98259.56;5286303;28;20343;-71
2022/11/04 03:56:11;;;;;;;;;;;;;;;11.66;66.58;98260.53;5284947;28;19920;-72
2022/11/04 03:59:30;;;;;;;;;;;;;;;11.57;67.51;98261.53;5252830;28;19976;-71
2022/11/04 04:02:34;;;;;;;;;;;;;;;11.37;67.74;98265.53;5286143;28;20419;-69
2022/11/04 04:05:28;;;;;;;;;;;;;;;11.31;67.94;98266.22;5286321;28;20277;-72
2022/11/04 04:08:34;;;;;;;;;;;;;;;11.32;67.33;98259.91;5286035;28;19927;-70
2022/11/04 04:11:43;;;;;;;;;;;;;;;11.24;67.52;98255.44;5265315;28;20282;-70
2022/11/04 04:14:38;;;;;;;;;;;;;;;11.15;67.94;98249.28;5256330;28;19927;-70
2022/11/04 04:17:33;;;;;;;;;;;;;;;11.20;67.67;98248.81;5265220;28;20029;-69
2022/11/04 04:20:26;;;;;;;;;;;;;;;11.21;67.69;98256.56;5265240;28;19970;-73
2022/11/04 04:29:37;;;;;;;;;;;;;;;11.25;67.34;98249.94;5264818;28;19930;-70
2022/11/04 04:32:28;;;;;;;;;;;;;;;11.07;68.36;98251.13;5264847;28;20401;-70
2022/11/04 04:35:41;;;;;;;;;;;;;;;11.00;68.29;98246.47;5265020;28;19931;-73
2022/11/04 04:45:02;;;;;;;;;;;;;;;10.85;68.43;98264.00;5270388;28;19943;-71
2022/11/04 04:47:52;;;;;;;;;;;;;;;10.74;68.59;98264.34;5239227;28;19965;-70
2022/11/04 04:50:50;;;;;;;;;;;;;;;10.63;69.66;98262.81;5268245;28;19926;-70
2022/11/04 04:53:40;;;;;;;;;;;;;;;10.80;69.24;98261.84;5268777;28;19962;-72
2022/11/04 04:56:30;;;;;;;;;;;;;;;10.68;69.56;98257.84;5267795;28;20044;-71
2022/11/04 04:59:19;;;;;;;;;;;;;;;10.82;69.13;98253.72;5272781;28;19989;-70
2022/11/04 05:02:09;;;;;;;;;;;;;;;10.82;68.99;98243.94;5279633;28;20400;-72
2022/11/04 05:05:00;;;;;;;;;;;;;;;10.57;69.10;98224.53;5286433;28;19920;-72
2022/11/04 05:07:50;;;;;;;;;;;;;;;10.57;69.00;98213.09;5274033;28;19927;-70
2022/11/04 05:10:40;;;;;;;;;;;;;;;10.58;69.59;98214.75;5274039;28;19923;-70
2022/11/04 05:13:30;;;;;;;;;;;;;;;10.52;69.11;98196.84;5282184;28;19926;-72
2022/11/04 05:16:20;;;;;;;;;;;;;;;10.44;68.97;98181.75;5274981;28;20322;-72
2022/11/04 05:19:09;;;;;;;;;;;;;;;10.41;69.01;98171.47;5252432;28;19942;-71
2022/11/04 05:21:59;;;;;;;;;;;;;;;10.44;69.93;98179.09;5267965;28;20602;-70
2022/11/04 05:24:49;;;;;;;;;;;;;;;10.43;69.03;98174.81;5268208;28;19920;-70
2022/11/04 05:27:39;;;;;;;;;;;;;;;10.33;69.62;98182.06;5267507;28;19985;-72
2022/11/04 05:30:29;;;;;;;;;;;;;;;10.32;70.37;98183.88;5242951;28;19920;-70
2022/11/04 05:33:19;;;;;;;;;;;;;;;10.42;70.22;98185.56;5273434;28;19927;-72
2022/11/04 05:36:13;;;;;;;;;;;;;;;10.46;69.29;98192.19;5267674;28;20024;-72
2022/11/04 05:39:04;;;;;;;;;;;;;;;10.25;69.62;98197.91;5267619;28;19926;-72
2022/11/04 05:41:54;;;;;;;;;;;;;;;10.28;69.52;98205.56;5266653;28;20558;-70
2022/11/04 05:44:43;;;;;;;;;;;;;;;10.29;68.75;98208.03;5276489;28;20065;-72
2022/11/04 05:47:33;;;;;;;;;;;;;;;9.80;69.93;98180.50;5267817;28;19966;-69
2022/11/04 05:50:23;;;;;;;;;;;;;;;10.05;69.70;98214.06;5267735;28;19973;-73
2022/11/04 05:53:13;;;;;;;;;;;;;;;10.16;69.69;98212.09;5267379;28;20024;-70
2022/11/04 05:56:04;;;;;;;;;;;;;;;10.17;69.77;98209.31;5267473;28;19981;-71
2022/11/04 05:58:54;;;;;;;;;;;;;;;10.14;69.94;98214.09;5274327;28;19927;-73
2022/11/04 06:01:44;;;;;;;;;;;;;;;10.02;70.04;98206.44;5280903;28;19924;-71
2022/11/04 06:04:35;;;;;;;;;;;;;;;10.04;69.84;98207.13;5252279;28;19959;-71
2022/11/04 06:07:26;;;;;;;;;;;;;;;10.00;69.47;98199.63;5251792;28;19951;-71
2022/11/04 06:10:16;;;;;;;;;;;;;;;9.97;69.44;98194.69;5267137;28;19993;-71
2022/11/04 06:13:06;;;;;;;;;;;;;;;10.05;70.73;98200.81;5274536;28;19931;-71
2022/11/04 06:15:56;;;;;;;;;;;;;;;10.12;70.16;98201.00;5288383;28;19931;-71
2022/11/04 06:18:45;;;;;;;;;;;;;;;10.03;70.40;98212.56;5288622;28;19930;-71
2022/11/04 06:21:35;;;;;;;;;;;;;;;10.04;70.63;98201.81;5275230;28;19923;-71
2022/11/04 06:24:25;;;;;;;;;;;;;;;10.00;70.99;98218.16;5251754;28;19942;-71
2022/11/04 06:27:15;;;;;;;;;;;;;;;10.14;70.79;98224.72;5272606;28;20011;-71
2022/11/04 06:30:05;;;;;;;;;;;;;;;10.21;70.66;98223.06;5284048;28;19951;-71
2022/11/04 06:32:55;;;;;;;;;;;;;;;10.30;70.32;98230.09;5272327;28;19926;-71
2022/11/04 06:35:45;;;;;;;;;;;;;;;10.15;70.58;98243.06;5266747;28;20085;-72
2022/11/04 06:38:38;;;;;;;;;;;;;;;10.05;70.82;98252.97;5266131;28;20448;-71
2022/11/04 06:41:28;;;;;;;;;;;;;;;10.15;71.56;98253.66;5273453;28;19973;-71
2022/11/04 06:44:18;;;;;;;;;;;;;;;10.28;70.92;98242.66;5286791;28;19930;-71
2022/11/04 06:47:08;;;;;;;;;;;;;;;10.32;70.71;98242.16;5269935;28;20385;-71
2022/11/04 06:49:58;;;;;;;;;;;;;;;10.17;71.73;98245.59;5266154;28;19927;-71
2022/11/04 06:52:48;;;;;;;;;;;;;;;10.19;71.55;98246.22;5266511;28;19966;-71
2022/11/04 06:55:38;;;;;;;;;;;;;;;10.33;71.27;98253.59;5271745;28;19988;-72
2022/11/04 06:58:28;;;;;;;;;;;;;;;10.31;71.38;98256.41;5277274;28;19920;-71
2022/11/04 07:01:19;;;;;;;;;;;;;;;10.29;71.40;98262.84;5260428;28;19934;-71
2022/11/04 07:04:11;;;;;;;;;;;;;;;10.32;71.08;98259.91;5272144;28;19950;-71
2022/11/04 07:07:01;;;;;;;;;;;;;;;10.22;72.01;98254.69;5265890;28;20451;-71
2022/11/04 07:09:50;;;;;;;;;;;;;;;10.39;71.71;98249.47;5250380;28;20326;-71
2022/11/04 07:12:41;;;;;;;;;;;;;;;10.66;69.96;98249.25;5264173;28;20061;-71
2022/11/04 07:15:32;;;;;;;;;;;;;;;10.53;70.56;98246.22;5271147;28;19936;-71
2022/11/04 07:18:21;;;;;;;;;;;;;;;10.71;70.37;98236.31;5277180;28;20414;-71
2022/11/04 07:21:11;;;;;;;;;;;;;;;10.80;68.73;98230.03;5286680;28;20016;-71
2022/11/04 07:24:01;;;;;;;;;;;;;;;10.81;69.61;98228.22;5286847;28;19926;-71
2022/11/04 07:26:53;;;;;;;;;;;;;;;10.86;69.40;98225.91;5286701;28;19919;-71
2022/11/04 07:29:43;;;;;;;;;;;;;;;10.84;69.75;98216.44;5253127;28;19919;-72
2022/11/04 07:32:34;;;;;;;;;;;;;;;10.84;69.92;98216.44;5274702;28;19927;-71
2022/11/04 07:35:23;;;;;;;;;;;;;;;10.84;69.52;98221.75;5265428;28;19989;-72
2022/11/04 07:38:13;;;;;;;;;;;;;;;10.81;70.00;98223.72;5258113;28;19927;-71
2022/11/04 07:41:04;;;;;;;;;;;;;;;10.75;70.05;98223.56;5250945;28;19927;-72
2022/11/04 07:43:53;;;;;;;;;;;;;;;10.78;70.60;98213.44;5255674;28;19965;-74
2022/11/04 07:46:43;;;;;;;;;;;;;;;10.91;70.71;98220.09;5275798;28;20403;-70
2022/11/04 07:49:33;;;;;;;;;;;;;;;10.88;70.62;98218.59;5265331;28;20537;-72
2022/11/04 07:52:24;;;;;;;;;;;;;;;11.05;69.64;98211.47;5264707;28;20318;-74
2022/11/04 07:55:17;;;;;;;;;;;;;;;11.08;69.45;98211.13;5265340;28;19924;-71
2022/11/04 07:58:08;;;;;;;;;;;;;;;11.10;69.07;98221.59;5264331;28;19928;-71
2022/11/04 08:00:58;;;;;;;;;;;;;;;11.15;68.96;98220.09;5257625;28;19920;-71
2022/11/04 08:03:49;;;;;;;;;;;;;;;11.32;68.14;98214.78;5250211;28;19947;-72
2022/11/04 08:06:39;;;;;;;;;;;;;;;11.43;68.14;98206.47;5250002;28;19993;-71
2022/11/04 08:09:29;;;;;;;;;;;;;;;11.41;67.93;98203.16;5264942;28;20001;-73
2022/11/04 08:12:20;;;;;;;;;;;;;;;11.47;69.23;98207.81;5249705;28;20440;-71
2022/11/04 08:15:10;;;;;;;;;;;;;;;11.49;69.83;98205.81;5255283;28;19939;-73
2022/11/04 08:18:00;;;;;;;;;;;;;;;11.62;69.55;98199.94;5248185;28;20551;-72
2022/11/04 08:20:51;;;;;;;;;;;;;;;11.49;69.73;98200.50;5257222;28;19928;-71
2022/11/04 08:23:41;;;;;;;;;;;;;;;11.62;69.45;98206.13;5259918;28;19927;-70
2022/11/04 08:26:31;;;;;;;;;;;;;;;11.68;68.67;98216.03;5258847;28;19942;-71
2022/11/04 08:29:21;;;;;;;;;;;;;;;11.79;68.67;98208.69;5270484;28;19924;-71
2022/11/04 08:32:15;;;;;;;;;;;;;;;12.06;68.38;98205.66;5268621;28;19927;-71
2022/11/04 08:35:05;;;;;;;;;;;;;;;12.17;67.29;98207.09;5253985;28;19920;-71
2022/11/04 08:37:54;;;;;;;;;;;;;;;12.20;67.50;98212.09;5259282;28;20008;-72
2022/11/04 08:40:45;;;;;;;;;;;;;;;12.25;67.42;98214.22;5256146;28;19946;-73
2022/11/04 08:43:35;;;;;;;;;;;;;;;12.55;66.16;98220.53;5267991;28;19943;-72
2022/11/04 08:46:30;;;;;;;;;;;;;;;12.03;67.86;98218.47;5266003;28;19943;-72
2022/11/04 08:49:21;;;;;;;;;;;;;;;12.04;66.97;98220.13;5262030;28;20031;-73
2022/11/04 08:52:10;;;;;;;;;;;;;;;12.03;68.25;98224.59;5242553;28;19931;-71
2022/11/04 08:55:00;;;;;;;;;;;;;;;12.13;68.07;98211.94;5265880;28;20020;-71
2022/11/04 08:57:50;;;;;;;;;;;;;;;12.04;68.51;98210.31;5252801;28;20060;-72
2022/11/04 09:00:40;;;;;;;;;;;;;;;12.47;67.18;98216.09;5270552;28;20389;-72
2022/11/04 09:03:31;;;;;;;;;;;;;;;12.74;66.32;98212.09;5265592;28;20760;-71
2022/11/04 09:06:23;;;;;;;;;;;;;;;12.96;65.52;98212.28;5268314;28;19920;-74
2022/11/04 09:09:14;;;;;;;;;;;;;;;12.96;65.15;98215.78;5267755;28;20073;-71
2022/11/04 09:12:08;;;;;;;;;;;;;;;13.15;64.94;98225.13;5260347;28;19919;-73
2022/11/04 09:14:58;;;;;;;;;;;;;;;13.21;63.95;98227.06;5276267;28;20068;-72
2022/11/04 09:17:48;;;;;;;;;;;;;;;12.94;64.20;98247.03;5288400;28;19920;-72
2022/11/04 09:20:38;;;;;;;;;;;;;;;12.85;64.10;98238.31;5270183;28;19963;-72
2022/11/04 09:23:28;;;;;;;;;;;;;;;12.99;64.81;98236.72;5268182;28;19973;-72
2022/11/04 09:26:18;;;;;;;;;;;;;;;13.03;64.15;98246.00;5246734;28;19989;-74
2022/11/04 09:29:09;;;;;;;;;;;;;;;13.08;63.35;98240.97;5264360;28;19928;-71
2022/11/04 09:31:59;;;;;;;;;;;;;;;13.00;63.94;98240.19;5264744;28;19951;-72
2022/11/04 09:34:49;;;;;;;;;;;;;;;13.00;63.22;98237.53;5231389;28;19921;-73
2022/11/04 09:37:38;;;;;;;;;;;;;;;12.55;64.98;98250.63;5260701;28;20012;-73
2022/11/04 09:40:29;;;;;;;;;;;;;;;12.85;64.13;98251.63;5264958;28;19927;-74
2022/11/04 09:43:37;;;;;;;;;;;;;;;13.15;61.85;98239.25;5273194;28;20389;-73
2022/11/04 09:46:29;;;;;;;;;;;;;;;13.40;62.61;98249.72;5264541;28;19999;-72
2022/11/04 09:49:20;;;;;;;;;;;;;;;13.55;61.33;98252.41;5251915;28;19920;-73
2022/11/04 09:52:16;;;;;;;;;;;;;;;13.66;62.12;98237.81;5267030;28;19928;-72
2022/11/04 09:55:12;;;;;;;;;;;;;;;13.74;61.98;98235.06;5267294;28;19927;-73
2022/11/04 09:58:03;;;;;;;;;;;;;;;13.95;59.87;98239.69;5256093;28;19927;-73
2022/11/04 10:01:01;;;;;;;;;;;;;;;14.04;60.88;98234.09;5267152;28;19927;-72
2022/11/04 10:04:07;;;;;;;;;;;;;;;14.00;59.17;98230.13;5267044;28;20053;-72
2022/11/04 10:07:10;;;;;;;;;;;;;;;14.14;59.01;98225.81;5272353;28;19930;-73
2022/11/04 10:10:05;;;;;;;;;;;;;;;14.18;58.40;98220.94;5259914;28;19926;-73
2022/11/04 10:13:04;;;;;;;;;;;;;;;14.31;57.50;98232.59;5267400;28;20025;-74
2022/11/04 10:16:13;;;;;;;;;;;;;;;14.54;57.01;98229.00;5266806;28;19949;-72
2022/11/04 10:19:16;;;;;;;;;;;;;;;14.26;57.55;98229.63;5267051;28;19942;-73
2022/11/04 10:22:22;;;;;;;;;;;;;;;14.31;56.48;98218.44;5253769;28;20408;-72
2022/11/04 10:25:14;;;;;;;;;;;;;;;14.46;56.05;98224.53;5271306;28;20076;-72
2022/11/04 10:28:07;;;;;;;;;;;;;;;14.83;55.71;98216.56;5287551;28;19927;-72
2022/11/04 10:30:57;;;;;;;;;;;;;;;14.96;54.15;98211.34;5272243;28;19931;-72
2022/11/04 10:33:53;;;;;;;;;;;;;;;15.09;55.15;98208.81;5287626;28;20067;-72
2022/11/04 10:36:46;;;;;;;;;;;;;;;15.03;55.66;98215.75;5265379;28;19920;-72
2022/11/04 10:39:38;;;;;;;;;;;;;;;14.99;54.42;98214.47;5273589;28;20041;-72
2022/11/04 10:42:28;;;;;;;;;;;;;;;14.98;57.29;98209.31;5263987;28;19930;-72
2022/11/04 10:45:21;;;;;;;;;;;;;;;15.12;57.61;98207.59;5267539;28;19919;-72
2022/11/04 10:48:15;;;;;;;;;;;;;;;15.12;54.23;98202.25;5266488;28;20386;-72
2022/11/04 10:51:05;;;;;;;;;;;;;;;15.09;54.68;98202.63;5258394;28;19977;-72
2022/11/04 10:53:57;;;;;;;;;;;;;;;15.39;54.38;98209.47;5267837;28;19927;-72
2022/11/04 10:56:49;;;;;;;;;;;;;;;15.38;54.67;98198.97;5286918;28;20466;-72
2022/11/04 10:59:50;;;;;;;;;;;;;;;15.40;53.29;98188.94;5280382;28;19928;-72
2022/11/04 11:02:45;;;;;;;;;;;;;;;15.50;53.04;98189.44;5253719;28;20009;-72
2022/11/04 11:05:35;;;;;;;;;;;;;;;15.30;54.85;98191.09;5265824;28;19927;-72
2022/11/04 11:08:31;;;;;;;;;;;;;;;15.41;53.82;98185.25;5265818;28;19927;-72
2022/11/04 11:11:40;;;;;;;;;;;;;;;15.22;54.63;98192.06;5265690;28;20013;-71
2022/11/04 11:14:35;;;;;;;;;;;;;;;15.08;53.16;98190.31;5273169;28;19977;-71
2022/11/04 11:17:36;;;;;;;;;;;;;;;15.14;55.68;98187.72;5262881;28;19920;-71
2022/11/04 11:20:26;;;;;;;;;;;;;;;15.02;54.14;98183.91;5266012;28;19992;-71
2022/11/04 11:23:31;;;;;;;;;;;;;;;15.22;52.44;98187.56;5250380;28;19949;-71
2022/11/04 11:26:29;;;;;;;;;;;;;;;15.18;52.19;98183.63;5265821;28;19927;-71
2022/11/04 11:29:24;;;;;;;;;;;;;;;14.99;53.43;98179.75;5273010;28;19920;-71
2022/11/04 11:32:31;;;;;;;;;;;;;;;15.15;52.30;98181.34;5269616;28;19920;-71
2022/11/04 11:35:24;;;;;;;;;;;;;;;15.00;53.52;98170.75;5285946;28;19920;-71
2022/11/04 11:38:22;;;;;;;;;;;;;;;15.07;52.42;98167.31;5265125;28;19919;-71
2022/11/04 11:41:17;;;;;;;;;;;;;;;15.06;52.68;98163.78;5250079;28;20018;-71
2022/11/04 11:44:24;;;;;;;;;;;;;;;15.01;54.72;98166.22;5275022;28;20249;-71
2022/11/04 11:47:20;;;;;;;;;;;;;;;14.86;54.43;98158.28;5270705;28;20434;-71
2022/11/04 11:50:10;;;;;;;;;;;;;;;14.97;56.55;98164.97;5285742;28;20028;-71
2022/11/04 11:53:12;;;;;;;;;;;;;;;14.93;55.60;98156.53;5275663;28;19920;-71
2022/11/04 11:56:02;;;;;;;;;;;;;;;15.07;53.73;98156.63;5265179;28;19965;-71
2022/11/04 11:59:01;;;;;;;;;;;;;;;15.27;52.55;98152.28;5269250;28;19943;-71
2022/11/04 12:02:11;;;;;;;;;;;;;;;15.32;54.64;98154.34;5245115;28;19928;-71
2022/11/04 12:05:01;;;;;;;;;;;;;;;15.64;52.46;98150.25;5244572;28;19936;-72
2022/11/04 12:08:31;;;;;;;;;;;;;;;15.62;52.93;98146.94;5244834;28;20278;-72
2022/11/04 12:11:47;;;;;;;;;;;;;;;15.63;56.13;98145.91;5262456;28;20004;-73
2022/11/04 12:14:49;;;;;;;;;;;;;;;15.63;53.88;98141.41;5272193;28;21246;-72
2022/11/04 12:17:45;;;;;;;;;;;;;;;15.63;51.09;98143.22;5283844;28;19927;-73
2022/11/04 12:20:50;;;;;;;;;;;;;;;15.46;52.25;98148.06;5286052;28;19920;-72
2022/11/04 12:23:53;;;;;;;;;;;;;;;15.47;53.42;98152.41;5286448;28;19973;-73
2022/11/04 12:27:00;;;;;;;;;;;;;;;15.46;52.65;98161.44;5270838;28;20557;-72
2022/11/04 12:30:09;;;;;;;;;;;;;;;15.51;50.91;98149.13;5257639;28;19926;-73
2022/11/04 12:32:59;;;;;;;;;;;;;;;15.40;52.38;98155.03;5278120;28;20004;-73
2022/11/04 12:36:07;;;;;;;;;;;;;;;15.33;53.08;98156.00;5277877;28;19927;-72
2022/11/04 12:38:57;;;;;;;;;;;;;;;15.33;52.44;98161.34;5264830;28;19931;-72
2022/11/04 12:41:55;;;;;;;;;;;;;;;15.15;52.37;98168.00;5264997;28;20531;-72
2022/11/04 12:45:23;;;;;;;;;;;;;;;15.20;51.99;98170.09;5272411;28;20355;-72
2022/11/04 12:48:27;;;;;;;;;;;;;;;15.22;53.34;98170.72;5258569;28;20016;-72
2022/11/04 12:51:41;;;;;;;;;;;;;;;15.27;52.09;98163.78;5279035;28;19926;-72
2022/11/04 12:54:50;;;;;;;;;;;;;;;15.32;52.29;98162.38;5276254;28;20309;-72
2022/11/04 12:57:45;;;;;;;;;;;;;;;15.45;51.16;98170.47;5285872;28;19924;-72
2022/11/04 13:00:37;;;;;;;;;;;;;;;15.40;50.49;98175.59;5275990;28;20009;-71
2022/11/04 13:03:53;;;;;;;;;;;;;;;15.34;53.63;98169.16;5284772;28;19930;-72
2022/11/04 13:06:46;;;;;;;;;;;;;;;15.24;53.35;98172.19;5254222;28;20328;-72
2022/11/04 13:09:40;;;;;;;;;;;;;;;15.38;54.70;98173.09;5289482;28;20007;-73
2022/11/04 13:12:42;;;;;;;;;;;;;;;15.35;55.32;98178.81;5288006;28;19943;-72
2022/11/04 13:15:39;;;;;;;;;;;;;;;15.30;54.42;98189.28;5274617;28;19920;-72
2022/11/04 13:18:32;;;;;;;;;;;;;;;15.16;55.15;98193.66;5268064;28;19927;-72
2022/11/04 13:21:24;;;;;;;;;;;;;;;14.94;55.42;98190.19;5267922;28;19927;-72
2022/11/04 13:24:20;;;;;;;;;;;;;;;15.23;52.39;98193.72;5268063;28;20015;-72
2022/11/04 13:27:32;;;;;;;;;;;;;;;15.17;53.77;98198.00;5269167;28;20397;-72
2022/11/04 13:30:41;;;;;;;;;;;;;;;15.25;53.06;98200.53;5280083;28;19924;-72
2022/11/04 13:33:53;;;;;;;;;;;;;;;15.12;54.64;98199.59;5273666;28;19931;-72
2022/11/04 13:36:46;;;;;;;;;;;;;;;15.17;53.30;98195.34;5245714;28;20578;-72
2022/11/04 13:39:40;;;;;;;;;;;;;;;15.23;51.41;98196.38;5245909;28;19927;-72
2022/11/04 13:42:33;;;;;;;;;;;;;;;15.08;51.89;98195.66;5268593;28;19927;-72
2022/11/04 13:45:23;;;;;;;;;;;;;;;15.08;52.11;98201.00;5288356;28;19929;-72
2022/11/04 13:48:17;;;;;;;;;;;;;;;15.01;53.63;98207.09;5288069;28;19945;-72
2022/11/04 13:51:09;;;;;;;;;;;;;;;14.85;55.05;98201.19;5288609;28;19982;-73
2022/11/04 13:53:58;;;;;;;;;;;;;;;14.78;54.87;98199.28;5288915;28;19926;-72
2022/11/04 13:56:48;;;;;;;;;;;;;;;14.77;54.12;98202.97;5278519;28;19930;-72
2022/11/04 13:59:38;;;;;;;;;;;;;;;14.78;54.80;98206.47;5271036;28;19930;-73
2022/11/04 14:02:42;;;;;;;;;;;;;;;14.73;54.73;98200.84;5267069;28;19943;-72
2022/11/04 14:05:44;;;;;;;;;;;;;;;14.80;53.27;98210.59;5267290;28;20044;-71
2022/11/04 14:08:34;;;;;;;;;;;;;;;14.76;55.61;98214.66;5267140;28;19997;-71
2022/11/04 14:11:24;;;;;;;;;;;;;;;14.78;55.38;98217.13;5274698;28;19965;-73
2022/11/04 14:14:16;;;;;;;;;;;;;;;14.88;54.25;98216.84;5287821;28;20000;-72
2022/11/04 14:17:25;;;;;;;;;;;;;;;14.75;54.79;98230.84;5288336;28;20011;-72
2022/11/04 14:20:23;;;;;;;;;;;;;;;14.77;55.02;98234.19;5287993;28;20478;-72
2022/11/04 14:23:21;;;;;;;;;;;;;;;14.78;56.73;98233.16;5285869;28;19919;-72
2022/11/04 14:26:15;;;;;;;;;;;;;;;14.81;57.04;98235.44;5275794;28;19920;-72
2022/11/04 14:29:07;;;;;;;;;;;;;;;14.84;56.48;98240.41;5272739;28;19926;-71
2022/11/04 14:31:59;;;;;;;;;;;;;;;14.96;56.40;98240.72;5274115;28;19927;-72
2022/11/04 14:34:56;;;;;;;;;;;;;;;14.87;55.88;98237.34;5289983;28;19926;-72
2022/11/04 14:37:50;;;;;;;;;;;;;;;14.87;54.74;98242.69;5249861;28;20151;-72
2022/11/04 14:40:49;;;;;;;;;;;;;;;14.92;55.84;98236.78;5273228;28;19920;-72
2022/11/04 14:43:41;;;;;;;;;;;;;;;14.89;56.48;98237.16;5266835;28;19923;-72
2022/11/04 14:46:34;;;;;;;;;;;;;;;14.84;57.24;98247.59;5266688;28;20385;-72
2022/11/04 14:49:43;;;;;;;;;;;;;;;14.80;57.13;98247.97;5266148;28;19931;-71
2022/11/04 14:52:33;;;;;;;;;;;;;;;14.62;56.22;98252.06;5269721;28;19976;-72
2022/11/04 14:55:28;;;;;;;;;;;;;;;14.69;56.62;98256.44;5263548;28;19926;-72
2022/11/04 14:58:21;;;;;;;;;;;;;;;14.74;57.02;98262.06;5270188;28;20299;-72
2022/11/04 15:01:14;;;;;;;;;;;;;;;14.56;55.06;98261.63;5274622;28;20348;-72
2022/11/04 15:04:08;;;;;;;;;;;;;;;14.62;56.80;98268.06;5287318;28;20016;-73
2022/11/04 15:07:03;;;;;;;;;;;;;;;14.39;54.57;98274.31;5286863;28;20392;-73
2022/11/04 15:09:53;;;;;;;;;;;;;;;14.32;54.00;98276.91;5286950;28;19984;-73
2022/11/04 15:12:49;;;;;;;;;;;;;;;14.27;55.23;98279.31;5267859;28;20004;-73
2022/11/04 15:15:43;;;;;;;;;;;;;;;14.19;54.83;98286.56;5273014;28;19989;-72
2022/11/04 15:18:33;;;;;;;;;;;;;;;14.09;55.97;98282.31;5265814;28;19927;-72
2022/11/04 15:21:23;;;;;;;;;;;;;;;13.65;56.48;98290.28;5265363;28;19967;-72
2022/11/04 15:24:15;;;;;;;;;;;;;;;13.17;58.27;98292.28;5265863;28;20623;-72
2022/11/04 15:27:05;;;;;;;;;;;;;;;13.42;58.60;98278.84;5265517;28;19927;-72
2022/11/04 15:29:57;;;;;;;;;;;;;;;13.46;58.19;98286.28;5269729;28;19927;-72
2022/11/04 15:33:01;;;;;;;;;;;;;;;13.25;59.43;98289.63;5265608;28;19924;-72